Time;durP1;ratioP1;P1;durP2;ratioP2;P2;SDS_P1;SDS_P2;PMS_P1;PMS_P2;Temp;Humidity;BMP_temperature;BMP_pressure;BME280_temperature;BME280_humidity;BME280_pressure;Samples;Min_cycle;Max_cycle;Signal;HPM_P1;HPM_P2
2021/12/19 00:08:48;;;;;;;0.53;0.47;;;9.60;99.90;;;;;;20825468;28;20675;-70
2021/12/19 00:18:53;;;;;;;0.20;0.20;;;9.50;99.90;;;;;;20905898;28;20197;-68
2021/12/19 00:29:00;;;;;;;0.40;0.40;;;9.40;99.90;;;;;;20888712;28;20236;-69
2021/12/19 00:39:05;;;;;;;0.20;0.00;;;9.30;99.90;;;;;;20908659;28;20190;-69
2021/12/19 00:49:08;;;;;;;0.20;0.00;;;9.10;99.90;;;;;;20906971;28;20225;-69
2021/12/19 00:59:14;;;;;;;0.20;0.10;;;9.10;99.90;;;;;;20924647;23;20204;-72
2021/12/19 01:09:19;;;;;;;0.20;0.10;;;8.90;99.90;;;;;;20919181;28;20249;-71
2021/12/19 01:19:24;;;;;;;0.23;0.23;;;8.90;99.90;;;;;;20922264;28;20198;-70
2021/12/19 01:29:28;;;;;;;0.20;0.10;;;8.80;99.90;;;;;;20919684;28;20217;-71
2021/12/19 01:39:33;;;;;;;0.20;0.10;;;8.70;99.90;;;;;;20832198;28;20205;-71
2021/12/19 01:49:37;;;;;;;0.40;0.40;;;8.70;99.90;;;;;;20837046;28;20226;-71
2021/12/19 01:59:42;;;;;;;0.20;0.00;;;8.60;99.90;;;;;;20848020;23;20364;-69
2021/12/19 02:09:46;;;;;;;0.20;0.00;;;8.50;99.90;;;;;;20916193;28;20256;-69
2021/12/19 02:19:52;;;;;;;0.20;0.10;;;8.40;99.90;;;;;;20881802;28;20229;-68
2021/12/19 02:29:57;;;;;;;0.20;0.10;;;8.30;99.90;;;;;;20915305;28;20563;-69
2021/12/19 02:40:26;;;;;;;0.20;0.10;;;8.20;99.90;;;;;;20841628;28;20221;-69
2021/12/19 02:50:31;;;;;;;0.20;0.00;;;8.30;99.90;;;;;;20813261;28;20237;-69
2021/12/19 03:00:34;;;;;;;0.20;0.10;;;8.40;99.90;;;;;;20831333;28;20218;-69
2021/12/19 03:21:01;;;;;;;0.20;0.00;;;8.50;99.90;;;;;;20910930;28;20225;-69
2021/12/19 03:31:07;;;;;;;0.20;0.10;;;8.30;99.90;;;;;;20911173;28;20222;-68
2021/12/19 03:41:17;;;;;;;0.20;0.10;;;8.30;99.90;;;;;;20826789;28;20194;-68
2021/12/19 03:51:22;;;;;;;0.20;0.10;;;8.10;99.90;;;;;;20808542;28;20226;-69
2021/12/19 04:01:26;;;;;;;0.93;0.93;;;7.90;99.90;;;;;;20809302;28;20695;-68
2021/12/19 04:11:31;;;;;;;0.93;0.93;;;7.80;99.90;;;;;;20830818;28;20264;-69
2021/12/19 04:21:35;;;;;;;0.20;0.10;;;7.80;99.90;;;;;;20908161;28;20194;-68
2021/12/19 04:31:40;;;;;;;0.20;0.10;;;7.90;99.90;;;;;;20908354;28;20217;-69
2021/12/19 05:02:50;;;;;;;0.20;0.10;;;7.70;99.90;;;;;;20840036;28;20613;-67
2021/12/19 05:23:23;;;;;;;0.20;0.00;;;7.40;99.90;;;;;;20920928;28;20276;-68
2021/12/19 05:33:28;;;;;;;0.20;0.10;;;7.50;99.90;;;;;;20883467;28;20316;-68
2021/12/19 05:53:54;;;;;;;0.20;0.10;;;7.60;99.90;;;;;;20834261;28;20327;-68
2021/12/19 06:03:58;;;;;;;0.20;0.10;;;7.80;99.90;;;;;;20817178;28;20236;-68
2021/12/19 06:14:04;;;;;;;0.20;0.10;;;7.90;99.90;;;;;;20878550;28;20328;-68
2021/12/19 06:24:07;;;;;;;0.20;0.07;;;7.90;99.90;;;;;;20915363;28;20674;-67
2021/12/19 06:34:12;;;;;;;0.20;0.10;;;7.90;99.90;;;;;;20871411;28;20601;-68
2021/12/19 06:44:16;;;;;;;0.20;0.10;;;7.70;99.90;;;;;;20831550;28;20198;-68
2021/12/19 06:54:21;;;;;;;0.20;0.10;;;7.20;99.90;;;;;;20829071;28;20232;-69
2021/12/19 07:04:24;;;;;;;0.20;0.10;;;7.00;99.90;;;;;;20829889;28;20305;-68
2021/12/19 07:14:30;;;;;;;0.20;0.10;;;6.90;99.90;;;;;;20876989;28;20232;-68
2021/12/19 07:24:33;;;;;;;0.20;0.07;;;6.70;99.90;;;;;;20911179;28;20284;-68
2021/12/19 07:34:39;;;;;;;0.20;0.10;;;6.60;99.90;;;;;;20880590;28;20233;-68
2021/12/19 07:44:42;;;;;;;0.20;0.10;;;6.50;99.90;;;;;;20828019;28;20685;-68
2021/12/19 07:54:47;;;;;;;0.20;0.10;;;6.60;99.90;;;;;;20826350;28;20639;-68
2021/12/19 08:04:51;;;;;;;0.20;0.00;;;6.80;99.90;;;;;;20824465;28;20276;-68
2021/12/19 08:14:56;;;;;;;0.20;0.07;;;7.50;99.90;;;;;;20876100;28;20220;-67
2021/12/19 08:24:59;;;;;;;0.20;0.00;;;7.90;99.90;;;;;;20905719;28;20204;-68
2021/12/19 08:35:07;;;;;;;0.20;0.10;;;8.30;99.90;;;;;;20873483;28;20237;-67
2021/12/19 08:45:11;;;;;;;0.20;0.00;;;8.70;99.90;;;;;;20823826;28;20685;-68
2021/12/19 08:55:16;;;;;;;0.20;0.10;;;9.20;99.90;;;;;;20804593;28;20232;-68
2021/12/19 09:05:20;;;;;;;0.20;0.00;;;9.80;99.90;;;;;;20820848;28;20237;-68
2021/12/19 09:15:25;;;;;;;0.20;0.10;;;10.20;99.90;;;;;;20874710;28;20320;-68
2021/12/19 09:25:29;;;;;;;0.20;0.10;;;10.80;99.90;;;;;;20918587;28;20603;-69
2021/12/19 09:35:34;;;;;;;0.20;0.10;;;11.10;99.90;;;;;;20903305;28;20777;-67
2021/12/19 09:45:39;;;;;;;0.20;0.10;;;11.80;99.90;;;;;;20916722;28;20684;-67
2021/12/19 09:55:45;;;;;;;0.20;0.10;;;12.20;99.90;;;;;;20913625;28;20300;-67
2021/12/19 10:05:49;;;;;;;0.20;0.00;;;12.50;99.90;;;;;;20897202;28;20757;-67
2021/12/19 10:15:54;;;;;;;0.20;0.00;;;13.00;99.90;;;;;;20913176;28;20599;-69
2021/12/19 10:26:07;;;;;;;0.20;0.00;;;13.20;99.90;;;;;;20912999;28;20197;-70
2021/12/19 10:36:12;;;;;;;0.20;0.00;;;13.90;99.90;;;;;;20911787;28;20323;-68
2021/12/19 10:46:15;;;;;;;0.20;0.10;;;14.20;99.90;;;;;;20911442;28;20193;-68
2021/12/19 10:56:23;;;;;;;0.20;0.00;;;14.30;99.90;;;;;;20893370;28;20255;-69
2021/12/19 11:06:31;;;;;;;9.37;8.80;;;14.60;99.90;;;;;;20910949;28;20308;-70
2021/12/19 11:16:37;;;;;;;0.20;0.00;;;14.90;99.90;;;;;;20909442;28;20721;-66
2021/12/19 11:26:42;;;;;;;0.20;0.00;;;15.50;99.90;;;;;;20908923;28;20551;-69
2021/12/19 11:36:53;;;;;;;0.20;0.03;;;15.60;99.90;;;;;;20908160;28;20229;-70
2021/12/19 11:46:56;;;;;;;0.20;0.00;;;16.00;99.90;;;;;;20890761;28;20211;-70
2021/12/19 11:57:21;;;;;;;0.20;0.10;;;16.00;99.90;;;;;;20906192;28;20615;-70
2021/12/19 12:07:25;;;;;;;0.20;0.10;;;16.60;99.90;;;;;;20904230;28;20315;-70
2021/12/19 12:17:40;;;;;;;0.20;0.20;;;17.30;99.90;;;;;;20904678;28;20313;-70
2021/12/19 12:27:46;;;;;;;0.20;0.10;;;18.00;99.90;;;;;;20905437;28;20193;-70
2021/12/19 12:37:53;;;;;;;0.20;0.10;;;18.10;99.90;;;;;;20886981;28;20227;-70
2021/12/19 12:47:57;;;;;;;1.03;1.03;;;18.40;99.90;;;;;;20903878;28;20204;-70
2021/12/19 12:58:16;;;;;;;0.20;0.00;;;18.30;99.90;;;;;;20917436;28;20335;-72
2021/12/19 13:08:21;;;;;;;0.20;0.10;;;18.00;99.90;;;;;;20919691;28;20576;-69
2021/12/19 13:18:26;;;;;;;0.20;0.10;;;18.10;99.90;;;;;;20918635;28;20279;-69
2021/12/19 13:28:30;;;;;;;0.20;0.10;;;18.00;99.90;;;;;;20918563;28;20189;-69
2021/12/19 13:38:35;;;;;;;0.20;0.10;;;16.40;99.90;;;;;;20918242;28;20390;-69
2021/12/19 13:48:40;;;;;;;0.20;0.00;;;17.00;99.90;;;;;;20919323;28;20265;-71
2021/12/19 13:58:48;;;;;;;0.20;0.10;;;16.90;99.90;;;;;;20918128;28;20209;-72
2021/12/19 14:08:55;;;;;;;0.20;0.00;;;16.90;99.90;;;;;;20899315;28;20308;-71
2021/12/19 14:19:00;;;;;;;0.20;0.10;;;17.40;99.90;;;;;;20915104;28;20663;-71
2021/12/19 14:29:04;;;;;;;0.20;0.10;;;17.40;99.90;;;;;;20915321;28;20716;-70
2021/12/19 14:39:09;;;;;;;0.20;0.10;;;17.40;99.90;;;;;;20914289;28;20312;-68
2021/12/19 14:49:13;;;;;;;0.20;0.00;;;16.60;99.90;;;;;;20912757;28;20292;-71
2021/12/19 14:59:20;;;;;;;0.20;0.00;;;15.50;99.90;;;;;;20913229;28;20213;-71
2021/12/19 15:09:24;;;;;;;0.20;0.10;;;15.50;99.90;;;;;;20912643;28;20221;-70
2021/12/19 15:19:30;;;;;;;0.20;0.10;;;16.00;99.90;;;;;;20911315;28;20224;-74
2021/12/19 15:29:34;;;;;;;0.20;0.00;;;15.90;99.90;;;;;;20892321;28;20229;-73
2021/12/19 15:39:40;;;;;;;0.20;0.10;;;16.20;99.90;;;;;;20908020;28;20232;-74
2021/12/19 15:49:44;;;;;;;0.20;0.00;;;16.10;99.90;;;;;;20906156;28;20283;-73
2021/12/19 15:59:49;;;;;;;0.20;0.10;;;14.60;99.90;;;;;;20907740;28;20248;-73
2021/12/19 16:09:53;;;;;;;0.20;0.10;;;13.80;99.90;;;;;;20906691;28;20284;-73
2021/12/19 16:19:58;;;;;;;0.20;0.10;;;13.20;99.90;;;;;;20904611;28;20694;-73
2021/12/19 16:30:01;;;;;;;0.70;0.70;;;13.00;99.90;;;;;;20915503;28;20300;-72
2021/12/19 16:40:10;;;;;;;0.20;0.10;;;12.60;99.90;;;;;;20902398;28;20885;-71
2021/12/19 16:50:14;;;;;;;0.20;0.10;;;11.50;99.90;;;;;;20920246;28;20607;-73
2021/12/19 17:00:21;;;;;;;2.23;2.13;;;11.00;99.90;;;;;;20901858;28;20279;-74
2021/12/19 17:10:25;;;;;;;0.33;0.33;;;10.90;99.90;;;;;;20919906;28;20197;-73
2021/12/19 17:20:29;;;;;;;0.20;0.10;;;10.40;99.90;;;;;;20918042;28;20283;-72
2021/12/19 17:30:34;;;;;;;2.33;2.20;;;9.90;99.90;;;;;;20917208;28;20198;-73
2021/12/19 17:40:56;;;;;;;0.20;0.10;;;9.80;99.90;;;;;;20898292;28;20259;-72
2021/12/19 17:50:59;;;;;;;0.60;0.60;;;9.50;99.90;;;;;;20845633;28;20275;-73
2021/12/19 18:01:06;;;;;;;0.20;0.10;;;9.40;99.90;;;;;;20910879;28;20225;-74
2021/12/19 18:11:10;;;;;;;0.20;0.10;;;9.10;99.90;;;;;;20913596;28;20869;-72
2021/12/19 18:21:15;;;;;;;0.20;0.20;;;9.10;99.90;;;;;;20912926;28;20583;-73
2021/12/19 18:31:20;;;;;;;0.20;0.10;;;8.90;99.90;;;;;;20910657;28;20201;-73
2021/12/19 18:41:32;;;;;;;0.40;0.40;;;8.90;99.90;;;;;;20910949;28;20261;-72
2021/12/19 18:51:46;;;;;;;0.20;0.10;;;8.80;99.90;;;;;;20909289;28;20197;-73
2021/12/19 19:02:00;;;;;;;0.20;0.10;;;8.60;99.90;;;;;;20910375;28;20251;-72
2021/12/19 19:12:05;;;;;;;5.57;5.20;;;8.50;99.90;;;;;;20910820;28;20216;-71
2021/12/19 19:22:11;;;;;;;0.20;0.00;;;8.70;99.90;;;;;;20894727;28;20198;-73
2021/12/19 19:32:15;;;;;;;0.20;0.10;;;8.20;99.90;;;;;;20911146;28;20224;-73
2021/12/19 19:42:44;;;;;;;0.20;0.10;;;8.30;99.90;;;;;;20908746;28;20292;-72
2021/12/19 19:52:47;;;;;;;0.20;0.10;;;8.10;99.90;;;;;;20908459;28;20244;-73
2021/12/19 20:02:52;;;;;;;0.20;0.10;;;7.50;99.90;;;;;;20904637;28;20309;-71
2021/12/19 20:12:55;;;;;;;0.63;0.63;;;7.60;99.90;;;;;;20904625;28;20567;-72
2021/12/19 20:23:01;;;;;;;0.20;0.10;;;7.50;99.90;;;;;;20900151;28;20670;-73
2021/12/19 20:33:05;;;;;;;0.20;0.03;;;7.60;99.90;;;;;;20889219;28;20222;-71
2021/12/19 20:43:16;;;;;;;0.20;0.10;;;7.60;99.90;;;;;;20822316;28;20215;-73
2021/12/19 20:53:20;;;;;;;0.20;0.10;;;7.90;99.90;;;;;;20822637;28;20295;-71
2021/12/19 21:03:25;;;;;;;0.20;0.10;;;7.60;99.90;;;;;;20822292;28;20221;-72
2021/12/19 21:13:37;;;;;;;0.20;0.00;;;7.80;99.90;;;;;;20862339;28;20221;-74
2021/12/19 21:23:45;;;;;;;0.20;0.00;;;7.90;99.90;;;;;;20918530;28;20276;-74
2021/12/19 21:33:48;;;;;;;0.20;0.00;;;8.10;99.90;;;;;;20918718;28;20598;-73
2021/12/19 21:43:54;;;;;;;0.20;0.10;;;7.70;99.90;;;;;;20918280;28;20551;-74
2021/12/19 21:53:58;;;;;;;0.20;0.00;;;8.00;99.90;;;;;;20917931;28;20589;-73
2021/12/19 22:04:03;;;;;;;0.20;0.10;;;7.60;99.90;;;;;;20914391;28;20801;-72
2021/12/19 22:24:30;;;;;;;0.20;0.10;;;7.10;99.90;;;;;;20899783;28;20285;-73
2021/12/19 22:34:34;;;;;;;0.20;0.10;;;6.90;99.90;;;;;;20908756;28;20229;-74
2021/12/19 22:44:40;;;;;;;0.20;0.10;;;6.80;99.90;;;;;;20911128;28;20288;-75
2021/12/19 22:54:43;;;;;;;0.20;0.10;;;6.70;99.90;;;;;;20910682;28;20225;-74
2021/12/19 23:04:48;;;;;;;0.20;0.00;;;6.80;99.90;;;;;;20909632;28;20232;-74
2021/12/19 23:14:52;;;;;;;0.20;0.10;;;7.10;99.90;;;;;;20907860;28;20229;-74
2021/12/19 23:24:59;;;;;;;0.20;0.10;;;7.30;99.90;;;;;;20908389;28;20221;-74
2021/12/19 23:35:02;;;;;;;0.20;0.10;;;6.90;99.90;;;;;;20907964;28;20279;-74
2021/12/19 23:45:21;;;;;;;0.20;0.10;;;6.80;99.90;;;;;;20886409;28;20659;-73
2021/12/19 23:55:28;;;;;;;0.20;0.10;;;6.40;99.90;;;;;;20902489;28;20293;-70
